sensor_id;sensor_type;location;lat;lon;timestamp;P1;durP1;ratioP1;P2;durP2;ratioP2
8562;SDS011;16392;52.508;13.468;2024-03-08T00:00:45;19.48;;;9.18;;
8562;SDS011;16392;52.508;13.468;2024-03-08T00:03:12;14.50;;;8.40;;
8562;SDS011;16392;52.508;13.468;2024-03-08T00:05:39;19.20;;;8.98;;
8562;SDS011;16392;52.508;13.468;2024-03-08T00:08:06;22.58;;;9.20;;
8562;SDS011;16392;52.508;13.468;2024-03-08T00:10:36;18.25;;;8.98;;
8562;SDS011;16392;52.508;13.468;2024-03-08T00:13:04;21.92;;;9.98;;
8562;SDS011;16392;52.508;13.468;2024-03-08T00:15:33;18.73;;;7.63;;
8562;SDS011;16392;52.508;13.468;2024-03-08T00:18:00;19.80;;;9.57;;
8562;SDS011;16392;52.508;13.468;2024-03-08T00:20:26;17.27;;;8.38;;
8562;SDS011;16392;52.508;13.468;2024-03-08T00:22:53;16.23;;;8.88;;
8562;SDS011;16392;52.508;13.468;2024-03-08T00:25:23;17.70;;;8.50;;
8562;SDS011;16392;52.508;13.468;2024-03-08T00:27:50;20.33;;;8.82;;
8562;SDS011;16392;52.508;13.468;2024-03-08T00:30:20;19.48;;;9.00;;
8562;SDS011;16392;52.508;13.468;2024-03-08T00:32:49;20.90;;;9.55;;
8562;SDS011;16392;52.508;13.468;2024-03-08T00:35:16;17.95;;;8.57;;
8562;SDS011;16392;52.508;13.468;2024-03-08T00:37:43;20.00;;;10.18;;
8562;SDS011;16392;52.508;13.468;2024-03-08T00:40:12;21.23;;;9.38;;
8562;SDS011;16392;52.508;13.468;2024-03-08T00:42:39;18.65;;;9.30;;
8562;SDS011;16392;52.508;13.468;2024-03-08T00:45:06;24.25;;;9.98;;
8562;SDS011;16392;52.508;13.468;2024-03-08T00:47:35;21.40;;;9.80;;
8562;SDS011;16392;52.508;13.468;2024-03-08T00:50:04;28.48;;;11.38;;
8562;SDS011;16392;52.508;13.468;2024-03-08T00:52:31;19.70;;;9.90;;
8562;SDS011;16392;52.508;13.468;2024-03-08T00:54:59;21.30;;;7.88;;
8562;SDS011;16392;52.508;13.468;2024-03-08T00:57:26;17.63;;;7.28;;
8562;SDS011;16392;52.508;13.468;2024-03-08T00:59:54;18.98;;;7.43;;
8562;SDS011;16392;52.508;13.468;2024-03-08T01:02:23;19.33;;;9.88;;
8562;SDS011;16392;52.508;13.468;2024-03-08T01:04:50;17.65;;;8.15;;
8562;SDS011;16392;52.508;13.468;2024-03-08T01:07:18;21.48;;;10.27;;
8562;SDS011;16392;52.508;13.468;2024-03-08T01:09:45;23.08;;;10.20;;
8562;SDS011;16392;52.508;13.468;2024-03-08T01:12:13;28.92;;;11.05;;
8562;SDS011;16392;52.508;13.468;2024-03-08T01:14:39;18.63;;;8.38;;
8562;SDS011;16392;52.508;13.468;2024-03-08T01:17:06;21.33;;;9.85;;
8562;SDS011;16392;52.508;13.468;2024-03-08T01:19:34;19.85;;;7.60;;
8562;SDS011;16392;52.508;13.468;2024-03-08T01:22:01;23.20;;;10.00;;
8562;SDS011;16392;52.508;13.468;2024-03-08T01:24:30;20.48;;;9.10;;
8562;SDS011;16392;52.508;13.468;2024-03-08T01:26:56;19.38;;;9.75;;
8562;SDS011;16392;52.508;13.468;2024-03-08T01:29:23;20.67;;;8.63;;
8562;SDS011;16392;52.508;13.468;2024-03-08T01:31:50;24.08;;;10.32;;
8562;SDS011;16392;52.508;13.468;2024-03-08T01:34:26;18.60;;;9.40;;
8562;SDS011;16392;52.508;13.468;2024-03-08T01:36:54;22.35;;;9.80;;
8562;SDS011;16392;52.508;13.468;2024-03-08T01:39:21;18.55;;;7.82;;
8562;SDS011;16392;52.508;13.468;2024-03-08T01:41:50;19.17;;;8.82;;
8562;SDS011;16392;52.508;13.468;2024-03-08T01:44:16;14.90;;;7.38;;
8562;SDS011;16392;52.508;13.468;2024-03-08T01:46:43;21.38;;;8.50;;
8562;SDS011;16392;52.508;13.468;2024-03-08T01:49:11;28.25;;;10.63;;
8562;SDS011;16392;52.508;13.468;2024-03-08T01:51:38;22.58;;;9.68;;
8562;SDS011;16392;52.508;13.468;2024-03-08T01:54:07;19.40;;;7.88;;
8562;SDS011;16392;52.508;13.468;2024-03-08T01:56:35;18.52;;;8.77;;
8562;SDS011;16392;52.508;13.468;2024-03-08T01:59:05;17.75;;;6.78;;
8562;SDS011;16392;52.508;13.468;2024-03-08T02:01:32;22.08;;;9.32;;
8562;SDS011;16392;52.508;13.468;2024-03-08T02:04:00;21.30;;;9.70;;
8562;SDS011;16392;52.508;13.468;2024-03-08T02:06:27;23.15;;;9.40;;
8562;SDS011;16392;52.508;13.468;2024-03-08T02:08:56;19.55;;;8.90;;
8562;SDS011;16392;52.508;13.468;2024-03-08T02:11:23;20.23;;;9.00;;
8562;SDS011;16392;52.508;13.468;2024-03-08T02:13:50;22.13;;;10.38;;
8562;SDS011;16392;52.508;13.468;2024-03-08T02:16:21;23.17;;;9.98;;
8562;SDS011;16392;52.508;13.468;2024-03-08T02:18:48;26.05;;;10.48;;
8562;SDS011;16392;52.508;13.468;2024-03-08T02:21:18;17.58;;;7.93;;
8562;SDS011;16392;52.508;13.468;2024-03-08T02:23:45;22.92;;;10.43;;
8562;SDS011;16392;52.508;13.468;2024-03-08T02:26:13;23.98;;;9.70;;
8562;SDS011;16392;52.508;13.468;2024-03-08T02:28:40;20.00;;;9.88;;
8562;SDS011;16392;52.508;13.468;2024-03-08T02:31:08;20.65;;;9.05;;
8562;SDS011;16392;52.508;13.468;2024-03-08T02:33:36;20.38;;;9.05;;
8562;SDS011;16392;52.508;13.468;2024-03-08T02:36:04;5.80;;;3.40;;
8562;SDS011;16392;52.508;13.468;2024-03-08T02:38:33;19.13;;;9.32;;
8562;SDS011;16392;52.508;13.468;2024-03-08T02:41:06;22.30;;;10.20;;
8562;SDS011;16392;52.508;13.468;2024-03-08T02:43:33;16.60;;;6.95;;
8562;SDS011;16392;52.508;13.468;2024-03-08T02:46:01;20.70;;;8.18;;
8562;SDS011;16392;52.508;13.468;2024-03-08T02:48:30;7.93;;;4.07;;
8562;SDS011;16392;52.508;13.468;2024-03-08T02:50:59;13.48;;;5.22;;
8562;SDS011;16392;52.508;13.468;2024-03-08T02:53:27;13.93;;;5.85;;
8562;SDS011;16392;52.508;13.468;2024-03-08T02:55:56;22.50;;;9.45;;
8562;SDS011;16392;52.508;13.468;2024-03-08T02:58:23;24.23;;;10.20;;
8562;SDS011;16392;52.508;13.468;2024-03-08T03:00:50;17.63;;;7.50;;
8562;SDS011;16392;52.508;13.468;2024-03-08T03:03:18;26.10;;;11.30;;
8562;SDS011;16392;52.508;13.468;2024-03-08T03:05:45;23.10;;;9.68;;
8562;SDS011;16392;52.508;13.468;2024-03-08T03:08:12;20.13;;;9.88;;
8562;SDS011;16392;52.508;13.468;2024-03-08T03:10:40;23.65;;;10.48;;
8562;SDS011;16392;52.508;13.468;2024-03-08T03:13:08;18.25;;;9.23;;
8562;SDS011;16392;52.508;13.468;2024-03-08T03:15:35;18.58;;;7.30;;
8562;SDS011;16392;52.508;13.468;2024-03-08T03:18:02;10.82;;;5.85;;
8562;SDS011;16392;52.508;13.468;2024-03-08T03:20:33;24.55;;;10.88;;
8562;SDS011;16392;52.508;13.468;2024-03-08T03:23:05;26.90;;;11.30;;
8562;SDS011;16392;52.508;13.468;2024-03-08T03:25:34;22.65;;;9.88;;
8562;SDS011;16392;52.508;13.468;2024-03-08T03:28:01;21.17;;;9.73;;
8562;SDS011;16392;52.508;13.468;2024-03-08T03:30:30;21.77;;;9.98;;
8562;SDS011;16392;52.508;13.468;2024-03-08T03:32:59;23.20;;;8.32;;
8562;SDS011;16392;52.508;13.468;2024-03-08T03:35:27;20.05;;;10.43;;
8562;SDS011;16392;52.508;13.468;2024-03-08T03:37:54;18.70;;;8.07;;
8562;SDS011;16392;52.508;13.468;2024-03-08T03:40:32;22.73;;;9.93;;
8562;SDS011;16392;52.508;13.468;2024-03-08T03:43:00;23.13;;;9.70;;
8562;SDS011;16392;52.508;13.468;2024-03-08T03:45:28;15.27;;;7.63;;
8562;SDS011;16392;52.508;13.468;2024-03-08T03:48:00;8.50;;;5.88;;
8562;SDS011;16392;52.508;13.468;2024-03-08T03:50:27;16.90;;;6.68;;
8562;SDS011;16392;52.508;13.468;2024-03-08T03:52:54;20.73;;;10.93;;
8562;SDS011;16392;52.508;13.468;2024-03-08T03:55:21;13.23;;;6.72;;
8562;SDS011;16392;52.508;13.468;2024-03-08T03:57:48;27.65;;;11.20;;
8562;SDS011;16392;52.508;13.468;2024-03-08T04:00:15;21.90;;;10.73;;
8562;SDS011;16392;52.508;13.468;2024-03-08T04:02:42;8.30;;;5.80;;
8562;SDS011;16392;52.508;13.468;2024-03-08T04:05:10;23.70;;;10.68;;
8562;SDS011;16392;52.508;13.468;2024-03-08T04:07:38;20.42;;;8.98;;
8562;SDS011;16392;52.508;13.468;2024-03-08T04:10:15;23.25;;;11.60;;
8562;SDS011;16392;52.508;13.468;2024-03-08T04:12:42;21.45;;;8.45;;
8562;SDS011;16392;52.508;13.468;2024-03-08T04:15:09;18.83;;;9.05;;
8562;SDS011;16392;52.508;13.468;2024-03-08T04:17:36;32.58;;;12.95;;
8562;SDS011;16392;52.508;13.468;2024-03-08T04:20:03;23.55;;;11.70;;
8562;SDS011;16392;52.508;13.468;2024-03-08T04:22:36;27.95;;;12.02;;
8562;SDS011;16392;52.508;13.468;2024-03-08T04:25:03;25.13;;;11.63;;
8562;SDS011;16392;52.508;13.468;2024-03-08T04:27:31;27.67;;;12.43;;
8562;SDS011;16392;52.508;13.468;2024-03-08T04:29:59;20.77;;;9.95;;
8562;SDS011;16392;52.508;13.468;2024-03-08T04:32:26;26.38;;;11.52;;
8562;SDS011;16392;52.508;13.468;2024-03-08T04:34:54;28.55;;;11.35;;
8562;SDS011;16392;52.508;13.468;2024-03-08T04:37:21;26.13;;;11.55;;
8562;SDS011;16392;52.508;13.468;2024-03-08T04:39:50;22.27;;;8.57;;
8562;SDS011;16392;52.508;13.468;2024-03-08T04:42:17;23.15;;;10.80;;
8562;SDS011;16392;52.508;13.468;2024-03-08T04:44:44;27.73;;;11.07;;
8562;SDS011;16392;52.508;13.468;2024-03-08T04:47:14;19.92;;;9.55;;
8562;SDS011;16392;52.508;13.468;2024-03-08T04:49:43;21.27;;;12.32;;
8562;SDS011;16392;52.508;13.468;2024-03-08T04:52:10;24.58;;;11.15;;
8562;SDS011;16392;52.508;13.468;2024-03-08T04:54:37;19.00;;;9.85;;
8562;SDS011;16392;52.508;13.468;2024-03-08T04:57:05;26.65;;;10.68;;
8562;SDS011;16392;52.508;13.468;2024-03-08T04:59:32;26.77;;;11.65;;
8562;SDS011;16392;52.508;13.468;2024-03-08T05:02:01;16.73;;;7.20;;
8562;SDS011;16392;52.508;13.468;2024-03-08T05:04:27;25.98;;;10.90;;
8562;SDS011;16392;52.508;13.468;2024-03-08T05:06:55;20.95;;;11.55;;
8562;SDS011;16392;52.508;13.468;2024-03-08T05:09:21;17.83;;;8.45;;
8562;SDS011;16392;52.508;13.468;2024-03-08T05:11:48;18.20;;;8.73;;
8562;SDS011;16392;52.508;13.468;2024-03-08T05:14:16;27.20;;;12.90;;
8562;SDS011;16392;52.508;13.468;2024-03-08T05:16:46;30.40;;;12.98;;
8562;SDS011;16392;52.508;13.468;2024-03-08T05:19:14;30.67;;;13.20;;
8562;SDS011;16392;52.508;13.468;2024-03-08T05:21:42;19.42;;;9.52;;
8562;SDS011;16392;52.508;13.468;2024-03-08T05:24:09;14.75;;;7.40;;
8562;SDS011;16392;52.508;13.468;2024-03-08T05:26:36;31.10;;;11.63;;
8562;SDS011;16392;52.508;13.468;2024-03-08T05:29:03;15.07;;;7.60;;
8562;SDS011;16392;52.508;13.468;2024-03-08T05:31:32;25.15;;;11.18;;
8562;SDS011;16392;52.508;13.468;2024-03-08T05:34:09;29.92;;;12.70;;
8562;SDS011;16392;52.508;13.468;2024-03-08T05:36:35;20.48;;;10.20;;
8562;SDS011;16392;52.508;13.468;2024-03-08T05:39:02;22.27;;;9.52;;
8562;SDS011;16392;52.508;13.468;2024-03-08T05:41:31;28.65;;;12.65;;
8562;SDS011;16392;52.508;13.468;2024-03-08T05:43:59;28.77;;;11.30;;
8562;SDS011;16392;52.508;13.468;2024-03-08T05:46:25;24.20;;;12.75;;
8562;SDS011;16392;52.508;13.468;2024-03-08T05:48:55;26.65;;;11.93;;
8562;SDS011;16392;52.508;13.468;2024-03-08T05:51:23;29.73;;;13.05;;
8562;SDS011;16392;52.508;13.468;2024-03-08T05:53:51;30.98;;;12.88;;
8562;SDS011;16392;52.508;13.468;2024-03-08T05:56:18;22.48;;;10.13;;
8562;SDS011;16392;52.508;13.468;2024-03-08T05:58:45;25.35;;;12.45;;
8562;SDS011;16392;52.508;13.468;2024-03-08T06:01:13;27.42;;;12.35;;
8562;SDS011;16392;52.508;13.468;2024-03-08T06:03:41;23.67;;;13.13;;
8562;SDS011;16392;52.508;13.468;2024-03-08T06:06:11;37.25;;;14.13;;
8562;SDS011;16392;52.508;13.468;2024-03-08T06:08:38;25.15;;;13.02;;
8562;SDS011;16392;52.508;13.468;2024-03-08T06:11:05;28.40;;;12.48;;
8562;SDS011;16392;52.508;13.468;2024-03-08T06:13:32;30.23;;;14.35;;
8562;SDS011;16392;52.508;13.468;2024-03-08T06:15:59;27.25;;;14.20;;
8562;SDS011;16392;52.508;13.468;2024-03-08T06:18:26;32.90;;;14.63;;
8562;SDS011;16392;52.508;13.468;2024-03-08T06:20:53;26.38;;;12.32;;
8562;SDS011;16392;52.508;13.468;2024-03-08T06:23:22;31.98;;;13.63;;
8562;SDS011;16392;52.508;13.468;2024-03-08T06:25:49;29.67;;;14.15;;
8562;SDS011;16392;52.508;13.468;2024-03-08T06:28:16;28.35;;;13.35;;
8562;SDS011;16392;52.508;13.468;2024-03-08T06:30:43;23.60;;;11.13;;
8562;SDS011;16392;52.508;13.468;2024-03-08T06:33:09;31.48;;;14.32;;
8562;SDS011;16392;52.508;13.468;2024-03-08T06:35:36;28.40;;;14.48;;
8562;SDS011;16392;52.508;13.468;2024-03-08T06:38:04;24.17;;;12.85;;
8562;SDS011;16392;52.508;13.468;2024-03-08T06:40:32;27.67;;;13.13;;
8562;SDS011;16392;52.508;13.468;2024-03-08T06:42:59;26.55;;;13.95;;
8562;SDS011;16392;52.508;13.468;2024-03-08T06:45:26;28.13;;;12.88;;
8562;SDS011;16392;52.508;13.468;2024-03-08T06:47:53;24.10;;;11.82;;
8562;SDS011;16392;52.508;13.468;2024-03-08T06:50:20;26.83;;;13.52;;
8562;SDS011;16392;52.508;13.468;2024-03-08T06:52:47;27.48;;;13.23;;
8562;SDS011;16392;52.508;13.468;2024-03-08T06:55:18;25.00;;;11.55;;
8562;SDS011;16392;52.508;13.468;2024-03-08T06:57:47;25.48;;;12.13;;
8562;SDS011;16392;52.508;13.468;2024-03-08T07:00:14;26.17;;;11.48;;
8562;SDS011;16392;52.508;13.468;2024-03-08T07:02:43;26.38;;;11.93;;
8562;SDS011;16392;52.508;13.468;2024-03-08T07:05:11;23.48;;;12.18;;
8562;SDS011;16392;52.508;13.468;2024-03-08T07:07:38;21.58;;;10.57;;
8562;SDS011;16392;52.508;13.468;2024-03-08T07:10:06;25.10;;;12.45;;
8562;SDS011;16392;52.508;13.468;2024-03-08T07:12:36;25.63;;;12.38;;
8562;SDS011;16392;52.508;13.468;2024-03-08T07:15:04;21.20;;;11.82;;
8562;SDS011;16392;52.508;13.468;2024-03-08T07:17:32;22.58;;;10.43;;
8562;SDS011;16392;52.508;13.468;2024-03-08T07:20:00;13.50;;;6.10;;
8562;SDS011;16392;52.508;13.468;2024-03-08T07:22:32;14.70;;;5.55;;
8562;SDS011;16392;52.508;13.468;2024-03-08T07:25:02;28.40;;;13.15;;
8562;SDS011;16392;52.508;13.468;2024-03-08T07:27:46;19.30;;;10.57;;
8562;SDS011;16392;52.508;13.468;2024-03-08T07:30:15;25.02;;;11.50;;
8562;SDS011;16392;52.508;13.468;2024-03-08T07:32:58;23.83;;;11.20;;
8562;SDS011;16392;52.508;13.468;2024-03-08T07:35:27;20.40;;;11.30;;
8562;SDS011;16392;52.508;13.468;2024-03-08T07:37:55;26.58;;;12.57;;
8562;SDS011;16392;52.508;13.468;2024-03-08T07:40:22;21.73;;;11.20;;
8562;SDS011;16392;52.508;13.468;2024-03-08T07:42:50;21.15;;;11.07;;
8562;SDS011;16392;52.508;13.468;2024-03-08T07:45:18;22.23;;;11.35;;
8562;SDS011;16392;52.508;13.468;2024-03-08T07:47:48;21.17;;;9.65;;
8562;SDS011;16392;52.508;13.468;2024-03-08T07:50:15;27.33;;;12.32;;
8562;SDS011;16392;52.508;13.468;2024-03-08T07:52:43;22.58;;;10.15;;
8562;SDS011;16392;52.508;13.468;2024-03-08T07:55:10;21.95;;;9.88;;
8562;SDS011;16392;52.508;13.468;2024-03-08T07:57:37;29.42;;;13.48;;
8562;SDS011;16392;52.508;13.468;2024-03-08T08:00:04;21.98;;;10.88;;
8562;SDS011;16392;52.508;13.468;2024-03-08T08:02:35;25.77;;;13.23;;
8562;SDS011;16392;52.508;13.468;2024-03-08T08:05:02;21.55;;;10.23;;
8562;SDS011;16392;52.508;13.468;2024-03-08T08:07:29;23.67;;;11.82;;
8562;SDS011;16392;52.508;13.468;2024-03-08T08:09:56;22.20;;;12.05;;
8562;SDS011;16392;52.508;13.468;2024-03-08T08:12:23;22.30;;;11.30;;
8562;SDS011;16392;52.508;13.468;2024-03-08T08:14:52;20.83;;;10.45;;
8562;SDS011;16392;52.508;13.468;2024-03-08T08:17:19;27.25;;;13.45;;
8562;SDS011;16392;52.508;13.468;2024-03-08T08:19:48;23.05;;;11.10;;
8562;SDS011;16392;52.508;13.468;2024-03-08T08:22:17;20.08;;;9.98;;
8562;SDS011;16392;52.508;13.468;2024-03-08T08:24:44;24.25;;;12.30;;
8562;SDS011;16392;52.508;13.468;2024-03-08T08:27:12;23.90;;;12.13;;
8562;SDS011;16392;52.508;13.468;2024-03-08T08:29:40;25.50;;;12.13;;
8562;SDS011;16392;52.508;13.468;2024-03-08T08:32:09;23.48;;;11.20;;
8562;SDS011;16392;52.508;13.468;2024-03-08T08:34:36;24.70;;;12.93;;
8562;SDS011;16392;52.508;13.468;2024-03-08T08:37:05;24.15;;;11.82;;
8562;SDS011;16392;52.508;13.468;2024-03-08T08:39:35;16.58;;;8.00;;
8562;SDS011;16392;52.508;13.468;2024-03-08T08:42:05;22.25;;;8.63;;
8562;SDS011;16392;52.508;13.468;2024-03-08T08:44:35;20.90;;;10.93;;
8562;SDS011;16392;52.508;13.468;2024-03-08T08:47:02;17.52;;;7.40;;
8562;SDS011;16392;52.508;13.468;2024-03-08T08:49:29;17.75;;;9.38;;
8562;SDS011;16392;52.508;13.468;2024-03-08T08:51:57;21.65;;;10.70;;
8562;SDS011;16392;52.508;13.468;2024-03-08T08:54:28;20.88;;;9.95;;
8562;SDS011;16392;52.508;13.468;2024-03-08T08:56:56;22.92;;;11.48;;
8562;SDS011;16392;52.508;13.468;2024-03-08T08:59:25;21.92;;;10.43;;
8562;SDS011;16392;52.508;13.468;2024-03-08T09:01:52;20.23;;;9.82;;
8562;SDS011;16392;52.508;13.468;2024-03-08T09:04:22;13.48;;;7.55;;
8562;SDS011;16392;52.508;13.468;2024-03-08T09:06:51;15.75;;;8.32;;
8562;SDS011;16392;52.508;13.468;2024-03-08T09:09:20;20.52;;;10.70;;
8562;SDS011;16392;52.508;13.468;2024-03-08T09:11:48;20.85;;;10.38;;
8562;SDS011;16392;52.508;13.468;2024-03-08T09:14:15;21.13;;;10.68;;
8562;SDS011;16392;52.508;13.468;2024-03-08T09:16:48;22.67;;;11.35;;
8562;SDS011;16392;52.508;13.468;2024-03-08T09:19:15;20.92;;;11.25;;
8562;SDS011;16392;52.508;13.468;2024-03-08T09:21:42;14.13;;;7.60;;
8562;SDS011;16392;52.508;13.468;2024-03-08T09:24:25;16.38;;;8.27;;
8562;SDS011;16392;52.508;13.468;2024-03-08T09:26:55;15.70;;;8.15;;
8562;SDS011;16392;52.508;13.468;2024-03-08T09:29:32;19.10;;;9.52;;
8562;SDS011;16392;52.508;13.468;2024-03-08T09:32:01;16.27;;;9.43;;
8562;SDS011;16392;52.508;13.468;2024-03-08T09:34:28;20.70;;;10.68;;
8562;SDS011;16392;52.508;13.468;2024-03-08T09:36:55;18.35;;;9.57;;
8562;SDS011;16392;52.508;13.468;2024-03-08T09:39:23;20.33;;;9.80;;
8562;SDS011;16392;52.508;13.468;2024-03-08T09:41:49;17.45;;;10.13;;
8562;SDS011;16392;52.508;13.468;2024-03-08T09:44:18;17.38;;;8.25;;
8562;SDS011;16392;52.508;13.468;2024-03-08T09:46:45;18.38;;;9.77;;
8562;SDS011;16392;52.508;13.468;2024-03-08T09:49:13;15.35;;;7.72;;
8562;SDS011;16392;52.508;13.468;2024-03-08T09:51:40;23.23;;;7.03;;
8562;SDS011;16392;52.508;13.468;2024-03-08T09:54:08;19.35;;;10.93;;
8562;SDS011;16392;52.508;13.468;2024-03-08T09:56:36;17.38;;;8.70;;
8562;SDS011;16392;52.508;13.468;2024-03-08T09:59:06;12.32;;;7.00;;
8562;SDS011;16392;52.508;13.468;2024-03-08T10:01:59;15.73;;;7.32;;
8562;SDS011;16392;52.508;13.468;2024-03-08T10:04:27;15.68;;;9.02;;
8562;SDS011;16392;52.508;13.468;2024-03-08T10:06:57;17.92;;;9.27;;
8562;SDS011;16392;52.508;13.468;2024-03-08T10:09:24;14.18;;;6.90;;
8562;SDS011;16392;52.508;13.468;2024-03-08T10:11:53;17.60;;;8.63;;
8562;SDS011;16392;52.508;13.468;2024-03-08T10:14:20;10.65;;;5.85;;
8562;SDS011;16392;52.508;13.468;2024-03-08T10:16:47;15.95;;;9.07;;
8562;SDS011;16392;52.508;13.468;2024-03-08T10:19:15;11.85;;;7.15;;
8562;SDS011;16392;52.508;13.468;2024-03-08T10:21:48;18.90;;;10.18;;
8562;SDS011;16392;52.508;13.468;2024-03-08T10:24:15;15.65;;;9.82;;
8562;SDS011;16392;52.508;13.468;2024-03-08T10:26:43;19.02;;;8.48;;
8562;SDS011;16392;52.508;13.468;2024-03-08T10:29:09;17.13;;;8.20;;
8562;SDS011;16392;52.508;13.468;2024-03-08T10:31:40;16.17;;;7.50;;
8562;SDS011;16392;52.508;13.468;2024-03-08T10:34:09;14.82;;;7.72;;
8562;SDS011;16392;52.508;13.468;2024-03-08T10:36:38;16.60;;;8.88;;
8562;SDS011;16392;52.508;13.468;2024-03-08T10:39:06;11.75;;;6.75;;
8562;SDS011;16392;52.508;13.468;2024-03-08T10:41:41;16.42;;;8.05;;
8562;SDS011;16392;52.508;13.468;2024-03-08T10:44:13;12.65;;;5.57;;
8562;SDS011;16392;52.508;13.468;2024-03-08T10:46:57;15.75;;;7.55;;
8562;SDS011;16392;52.508;13.468;2024-03-08T10:49:30;14.50;;;7.75;;
8562;SDS011;16392;52.508;13.468;2024-03-08T10:52:02;15.88;;;8.43;;
8562;SDS011;16392;52.508;13.468;2024-03-08T10:54:30;18.65;;;8.30;;
8562;SDS011;16392;52.508;13.468;2024-03-08T10:56:59;9.63;;;3.92;;
8562;SDS011;16392;52.508;13.468;2024-03-08T10:59:29;14.00;;;6.38;;
8562;SDS011;16392;52.508;13.468;2024-03-08T11:01:59;14.90;;;7.13;;
8562;SDS011;16392;52.508;13.468;2024-03-08T11:04:25;10.07;;;5.00;;
8562;SDS011;16392;52.508;13.468;2024-03-08T11:07:00;15.32;;;7.65;;
8562;SDS011;16392;52.508;13.468;2024-03-08T11:09:33;13.90;;;7.32;;
8562;SDS011;16392;52.508;13.468;2024-03-08T11:12:18;15.10;;;8.35;;
8562;SDS011;16392;52.508;13.468;2024-03-08T11:14:46;16.67;;;6.97;;
8562;SDS011;16392;52.508;13.468;2024-03-08T11:17:15;14.50;;;6.57;;
8562;SDS011;16392;52.508;13.468;2024-03-08T11:19:46;14.77;;;7.40;;
8562;SDS011;16392;52.508;13.468;2024-03-08T11:22:22;14.02;;;6.93;;
8562;SDS011;16392;52.508;13.468;2024-03-08T11:24:52;13.60;;;7.45;;
8562;SDS011;16392;52.508;13.468;2024-03-08T11:27:21;12.18;;;6.45;;
8562;SDS011;16392;52.508;13.468;2024-03-08T11:30:00;10.98;;;7.32;;
8562;SDS011;16392;52.508;13.468;2024-03-08T11:32:37;11.10;;;6.03;;
8562;SDS011;16392;52.508;13.468;2024-03-08T11:35:05;17.75;;;7.13;;
8562;SDS011;16392;52.508;13.468;2024-03-08T11:37:34;18.25;;;8.43;;
8562;SDS011;16392;52.508;13.468;2024-03-08T11:40:05;12.82;;;7.38;;
8562;SDS011;16392;52.508;13.468;2024-03-08T11:42:43;15.05;;;7.80;;
8562;SDS011;16392;52.508;13.468;2024-03-08T11:45:11;14.45;;;8.32;;
8562;SDS011;16392;52.508;13.468;2024-03-08T11:47:44;11.65;;;6.75;;
8562;SDS011;16392;52.508;13.468;2024-03-08T11:50:15;20.00;;;10.15;;
8562;SDS011;16392;52.508;13.468;2024-03-08T11:52:48;16.23;;;8.27;;
8562;SDS011;16392;52.508;13.468;2024-03-08T11:55:17;18.75;;;9.23;;
8562;SDS011;16392;52.508;13.468;2024-03-08T11:57:49;10.73;;;7.22;;
8562;SDS011;16392;52.508;13.468;2024-03-08T12:00:18;16.77;;;8.27;;
8562;SDS011;16392;52.508;13.468;2024-03-08T12:03:00;12.32;;;6.80;;
8562;SDS011;16392;52.508;13.468;2024-03-08T12:05:28;19.92;;;9.93;;
8562;SDS011;16392;52.508;13.468;2024-03-08T12:07:58;15.73;;;8.38;;
8562;SDS011;16392;52.508;13.468;2024-03-08T12:10:27;15.82;;;7.80;;
8562;SDS011;16392;52.508;13.468;2024-03-08T12:12:54;17.98;;;10.57;;
8562;SDS011;16392;52.508;13.468;2024-03-08T12:15:24;16.95;;;9.40;;
8562;SDS011;16392;52.508;13.468;2024-03-08T12:17:53;17.42;;;9.25;;
8562;SDS011;16392;52.508;13.468;2024-03-08T12:20:21;13.75;;;8.20;;
8562;SDS011;16392;52.508;13.468;2024-03-08T12:22:49;17.08;;;10.82;;
8562;SDS011;16392;52.508;13.468;2024-03-08T12:25:20;14.07;;;8.15;;
8562;SDS011;16392;52.508;13.468;2024-03-08T12:27:51;15.77;;;8.10;;
8562;SDS011;16392;52.508;13.468;2024-03-08T12:30:21;8.48;;;4.05;;
8562;SDS011;16392;52.508;13.468;2024-03-08T12:32:53;15.15;;;7.07;;
8562;SDS011;16392;52.508;13.468;2024-03-08T12:35:23;14.07;;;6.90;;
8562;SDS011;16392;52.508;13.468;2024-03-08T12:37:52;17.83;;;9.63;;
8562;SDS011;16392;52.508;13.468;2024-03-08T12:40:26;11.45;;;6.95;;
8562;SDS011;16392;52.508;13.468;2024-03-08T12:42:56;14.70;;;7.90;;
8562;SDS011;16392;52.508;13.468;2024-03-08T12:45:24;11.27;;;6.70;;
8562;SDS011;16392;52.508;13.468;2024-03-08T12:47:52;9.82;;;6.07;;
8562;SDS011;16392;52.508;13.468;2024-03-08T12:50:20;14.27;;;8.80;;
8562;SDS011;16392;52.508;13.468;2024-03-08T12:52:48;14.05;;;7.22;;
8562;SDS011;16392;52.508;13.468;2024-03-08T12:55:15;18.70;;;8.10;;
8562;SDS011;16392;52.508;13.468;2024-03-08T12:57:46;14.95;;;8.05;;
8562;SDS011;16392;52.508;13.468;2024-03-08T13:00:19;15.70;;;8.55;;
8562;SDS011;16392;52.508;13.468;2024-03-08T13:02:51;14.35;;;8.30;;
8562;SDS011;16392;52.508;13.468;2024-03-08T13:05:20;13.93;;;6.22;;
8562;SDS011;16392;52.508;13.468;2024-03-08T13:07:48;13.95;;;6.97;;
8562;SDS011;16392;52.508;13.468;2024-03-08T13:10:15;13.23;;;6.78;;
8562;SDS011;16392;52.508;13.468;2024-03-08T13:12:46;12.00;;;6.03;;
8562;SDS011;16392;52.508;13.468;2024-03-08T13:15:13;9.70;;;4.97;;
8562;SDS011;16392;52.508;13.468;2024-03-08T13:17:48;11.60;;;7.53;;
8562;SDS011;16392;52.508;13.468;2024-03-08T13:20:22;9.48;;;5.45;;
8562;SDS011;16392;52.508;13.468;2024-03-08T13:22:49;17.92;;;8.35;;
8562;SDS011;16392;52.508;13.468;2024-03-08T13:25:16;15.65;;;7.07;;
8562;SDS011;16392;52.508;13.468;2024-03-08T13:27:48;9.05;;;5.22;;
8562;SDS011;16392;52.508;13.468;2024-03-08T13:30:15;7.30;;;3.05;;
8562;SDS011;16392;52.508;13.468;2024-03-08T13:35:45;9.13;;;4.90;;
8562;SDS011;16392;52.508;13.468;2024-03-08T13:38:13;13.93;;;8.45;;
8562;SDS011;16392;52.508;13.468;2024-03-08T13:40:40;14.63;;;8.60;;
8562;SDS011;16392;52.508;13.468;2024-03-08T13:43:10;11.40;;;6.75;;
8562;SDS011;16392;52.508;13.468;2024-03-08T13:45:39;10.32;;;6.07;;
8562;SDS011;16392;52.508;13.468;2024-03-08T13:48:19;9.73;;;5.40;;
8562;SDS011;16392;52.508;13.468;2024-03-08T13:50:47;12.35;;;6.75;;
8562;SDS011;16392;52.508;13.468;2024-03-08T13:53:16;13.52;;;6.75;;
8562;SDS011;16392;52.508;13.468;2024-03-08T13:55:43;15.75;;;6.10;;
8562;SDS011;16392;52.508;13.468;2024-03-08T13:58:12;12.55;;;6.70;;
8562;SDS011;16392;52.508;13.468;2024-03-08T14:00:40;7.45;;;4.00;;
8562;SDS011;16392;52.508;13.468;2024-03-08T14:03:22;15.05;;;6.80;;
8562;SDS011;16392;52.508;13.468;2024-03-08T14:05:51;12.88;;;5.45;;
8562;SDS011;16392;52.508;13.468;2024-03-08T14:08:22;13.77;;;7.15;;
8562;SDS011;16392;52.508;13.468;2024-03-08T14:10:49;12.55;;;7.78;;
8562;SDS011;16392;52.508;13.468;2024-03-08T14:13:19;14.15;;;7.93;;
8562;SDS011;16392;52.508;13.468;2024-03-08T14:15:48;10.73;;;5.57;;
8562;SDS011;16392;52.508;13.468;2024-03-08T14:18:15;11.43;;;6.28;;
8562;SDS011;16392;52.508;13.468;2024-03-08T14:20:43;13.40;;;6.22;;
8562;SDS011;16392;52.508;13.468;2024-03-08T14:23:10;10.60;;;5.85;;
8562;SDS011;16392;52.508;13.468;2024-03-08T14:25:37;11.50;;;5.20;;
8562;SDS011;16392;52.508;13.468;2024-03-08T14:28:04;14.25;;;7.95;;
8562;SDS011;16392;52.508;13.468;2024-03-08T14:30:33;12.73;;;5.82;;
8562;SDS011;16392;52.508;13.468;2024-03-08T14:33:03;13.35;;;7.07;;
8562;SDS011;16392;52.508;13.468;2024-03-08T14:35:34;18.58;;;7.38;;
8562;SDS011;16392;52.508;13.468;2024-03-08T14:38:04;9.13;;;5.40;;
8562;SDS011;16392;52.508;13.468;2024-03-08T14:40:34;11.93;;;6.50;;
8562;SDS011;16392;52.508;13.468;2024-03-08T14:43:02;12.98;;;7.13;;